ADDS METAR Data INFO
IDs: Format: Raw Decoded Include TAF

Data at: 1323 UTC 19 Jul 2018

KEGE 191256Z 09004KT 10SM CLR 12/03 A3035 RMK AO2 SLP208 T01220033
KEGE 191156Z AUTO 00000KT 10SM CLR 12/03 A3032 RMK AO2 SLP196 T01220028 10200 20122 53010
KEGE 191056Z AUTO 14003KT 10SM CLR 14/03 A3030 RMK AO2 SLP187 T01390028
KEGE 190956Z AUTO 00000KT 10SM CLR 15/03 A3029 RMK AO2 SLP182 T01500033
KEGE 190856Z AUTO 07003KT 10SM CLR 16/03 A3029 RMK AO2 SLP177 T01560033 51004
KEGE 190756Z AUTO 00000KT 10SM CLR 17/03 A3028 RMK AO2 SLP175 T01670033
KEGE 190656Z AUTO 15005KT 10SM CLR 18/04 A3028 RMK AO2 SLP173 T01830039
KEGE 190556Z AUTO 13004KT 10SM CLR 19/03 A3027 RMK AO2 SLP169 T01940028 10322 20194 403280128 51012
KEGE 190456Z AUTO 07007KT 10SM CLR 22/03 A3027 RMK AO2 SLP169 T02170028
KEGE 190356Z AUTO 09003KT 10SM CLR 25/03 A3026 RMK AO2 SLP166 T02500033
KEGE 190256Z AUTO 27004KT 10SM CLR 28/04 A3023 RMK AO2 SLP154 T02780039 53003
KEGE 190156Z AUTO 25009KT 10SM CLR 31/04 A3021 RMK AO2 SLP151 T03060039
KEGE 190056Z AUTO 25008KT 10SM CLR 31/02 A3021 RMK AO2 SLP153 T03110022
KEGE 182356Z VRB05G16KT 10SM CLR 32/03 A3022 RMK AO2 SLP156 T03170033 10328 20289 58012
KEGE 182256Z 24009KT 10SM CLR 32/04 A3023 RMK AO2 SLP161 T03170039
KEGE 182156Z 24008G21KT 200V270 10SM CLR 31/03 A3025 RMK AO2 SLP165 T03110028
KEGE 182056Z 29010KT 260V320 10SM FEW120 32/02 A3026 RMK AO2 SLP165 T03220022 56015
KEGE 181956Z 30012KT 10SM SCT120 31/03 A3028 RMK AO2 PK WND 31030/1927 SLP176 T03060028
KEGE 181856Z 28012G31KT 260V320 10SM BKN120 31/01 A3029 RMK AO2 PK WND 29041/1846 SLP180 T03060011
KEGE 181756Z 00000KT 10SM CLR 29/03 A3031 RMK AO2 SLP186 T02890028 10300 20128 58016
KEGE 181656Z 00000KT 10SM CLR 27/05 A3034 RMK AO2 SLP196 T02670050
KEGE 181556Z 18003KT 10SM CLR 23/05 A3036 RMK AO2 SLP201 T02330050
KEGE 181456Z 00000KT 10SM CLR 21/05 A3037 RMK AO2 SLP211 T02060050 50002
KEGE 181356Z 07003KT 10SM CLR 17/06 A3038 RMK AO2 SLP219 T01720061
KEGE 181256Z 00000KT 10SM CLR 14/05 A3038 RMK AO2 SLP218 T01440050
KEGE 181156Z AUTO 09003KT 10SM FEW110 13/04 A3036 RMK AO2 SLP213 T01330039 10183 20133 53009
KEGE 181056Z AUTO 00000KT 10SM SCT110 14/04 A3035 RMK AO2 SLP202 T01390039
KEGE 180956Z AUTO 00000KT 10SM BKN110 15/04 A3034 RMK AO2 SLP200 T01500039
KEGE 180856Z AUTO 08004KT 10SM BKN110 16/06 A3033 RMK AO2 SLP190 T01610056 51005
KEGE 180756Z AUTO 08006KT 10SM CLR 16/05 A3033 RMK AO2 SLP191 T01560050
KEGE 180656Z AUTO 08007KT 10SM CLR 16/05 A3033 RMK AO2 SLP194 T01610050
KEGE 180556Z AUTO 09006KT 10SM CLR 18/05 A3031 RMK AO2 SLP185 T01830050 10300 20183 403280133 51012
KEGE 180456Z AUTO 11006KT 10SM CLR 19/06 A3031 RMK AO2 SLP186 T01940056
KEGE 180356Z AUTO 00000KT 10SM CLR 24/05 A3030 RMK AO2 SLP175 T02440050
KEGE 180256Z AUTO 25009KT 10SM CLR 24/05 A3027 RMK AO2 SLP176 T02440050 53011
KEGE 180156Z AUTO 23016KT 10SM CLR 26/04 A3025 RMK AO2 SLP173 T02610044